Trenton, NJ (08618)

9:09 AM EST on December 11, 2019 (GMT -0500)
ewing township | | Change Station

Elev 118 ft 40.26 °N, 74.78 °W | Updated 4 minutes ago

Overcast
Overcast
32.7 °F
Feels Like 33 °F
N
0
Wind Variable Wind from NNW
Gusts 1.0 mph

Today
High -- | Low -- °F
--% Chance of Precip.
Yesterday
High -- | Low -- °F
Precip. -- in
Pressure 30.30 in
Visibility 4.0 miles
Clouds Few 2400 ft
Overcast 4100 ft
Windchill 33 °F
Dew Point 30 °F
Humidity 88%
Rainfall 0.07 in
Snow Depth Not available.
7:11 AM 4:33 PM
Full, 100% visible
SPECI KTTN 111332Z 35005KT 4SM -SN BR FEW024 OVC041 00/M01 A3030 RMK AO2 P0000 T00001011
Pressure 30.30 in
Visibility 4.0 miles
Clouds Few 2400 ft
Overcast 4100 ft
Windchill 33 °F
Dew Point 30 °F
Humidity 88%
Rainfall 0.07 in
Snow Depth Not available.
7:11 AM 4:33 PM
Full, 100% visible
SPECI KTTN 111332Z 35005KT 4SM -SN BR FEW024 OVC041 00/M01 A3030 RMK AO2 P0000 T00001011

Get Severe Weather Alerts

Thanks for signing up!

Be on the lookout for a verification email in your inbox.

You'll start receiving the daily forecast at 6 AM.

×

10-Day Weather Forecast

Almanac

Astronomy

Dec. 11, 2019 Rise Set
Actual Time
Civil Twilight
Nautical Twilight
Astronomical Twilight
Moon
Length of Visible Light
Length of Day
Tomorrow will be .
, % of the Moon is Illuminated

Today's Extremes

State Highs State Lows

Community

WunderPhotos

Category 6

Welcome to Category 6. This is the collective home for Weather Underground's featured writeups by Dr. Jeff Masters (right), Bob Henson (left), Chris Burt, and other regular contributors.

Nearby

Air Quality

  Air Quality AQ Index Pollutant
Not available.

Snow Depth

Station Depth Elevation

Earthquake Activity

City Distance Mag. Time & Date
Minimum magnitude displayed is 2.5.

Coastal Water Temperatures

Place Temperature

Stations

Nearby Weather Stations

Station Location Temp. Windchill Dew Point Humidity Wind Precip. Elev Updated Type
                   

Watches & Warnings

There are currently no watches in effect.